Time;durP1;ratioP1;P1;durP2;ratioP2;P2;SDS_P1;SDS_P2;PMS_P1;PMS_P2;Temp;Humidity;BMP_temperature;BMP_pressure;BME280_temperature;BME280_humidity;BME280_pressure;Samples;Min_cycle;Max_cycle;Signal;HPM_P1;HPM_P2
2022/10/08 00:01:10;;;;;;;1999.90;999.90;;;12.50;99.90;;;;;;5108387;28;20055;-64
2022/10/08 00:03:38;;;;;;;1999.90;999.90;;;12.50;99.90;;;;;;5076694;28;20072;-64
2022/10/08 00:06:17;;;;;;;1999.90;999.90;;;12.50;99.90;;;;;;5107850;28;20047;-64
2022/10/08 00:08:51;;;;;;;1999.90;999.90;;;12.50;99.90;;;;;;5089809;28;20048;-64
2022/10/08 00:11:20;;;;;;;1999.90;999.90;;;12.50;99.90;;;;;;5090028;28;20039;-64
2022/10/08 00:13:47;;;;;;;1999.90;999.90;;;12.50;99.90;;;;;;5113400;28;20404;-64
2022/10/08 00:16:30;;;;;;;1999.90;999.90;;;12.40;99.90;;;;;;5097557;28;20043;-64
2022/10/08 00:19:02;;;;;;;1999.90;999.90;;;12.50;99.90;;;;;;5093765;28;20040;-64
2022/10/08 00:21:31;;;;;;;1999.90;999.90;;;12.40;99.90;;;;;;5121259;28;20043;-64
2022/10/08 00:23:57;;;;;;;1999.90;999.90;;;12.50;99.90;;;;;;5089338;28;20035;-64
2022/10/08 00:26:25;;;;;;;1999.90;999.90;;;12.50;99.90;;;;;;5107207;28;20038;-64
2022/10/08 00:28:54;;;;;;;1999.90;999.90;;;12.50;99.90;;;;;;5089100;28;20039;-64
2022/10/08 00:31:40;;;;;;;1999.90;999.90;;;12.40;99.90;;;;;;5107495;28;20082;-64
2022/10/08 00:34:12;;;;;;;1999.90;999.90;;;12.40;99.90;;;;;;5084545;28;20048;-65
2022/10/08 00:36:39;;;;;;;1999.90;999.90;;;12.40;99.90;;;;;;5107604;28;20031;-64
2022/10/08 00:39:13;;;;;;;1999.90;999.90;;;12.50;99.90;;;;;;5089731;28;20101;-64
2022/10/08 00:41:39;;;;;;;1999.90;999.90;;;12.50;99.90;;;;;;5107470;28;20114;-64
2022/10/08 00:44:42;;;;;;;1999.90;999.90;;;12.40;99.90;;;;;;5110112;28;20442;-64
2022/10/08 00:47:32;;;;;;;1999.90;999.90;;;12.40;99.90;;;;;;5120336;28;20449;-64
2022/10/08 00:50:16;;;;;;;1999.90;999.90;;;12.40;99.90;;;;;;5077025;28;20035;-64
2022/10/08 00:52:51;;;;;;;1999.90;999.90;;;12.40;99.90;;;;;;5121465;28;20043;-64
2022/10/08 00:55:22;;;;;;;1999.90;999.90;;;12.40;99.90;;;;;;5090536;28;20101;-64
2022/10/08 00:57:51;;;;;;;1999.90;999.90;;;12.40;99.90;;;;;;5111000;27;20114;-64
2022/10/08 01:00:21;;;;;;;1999.90;999.90;;;12.40;99.90;;;;;;5123277;27;20079;-64
2022/10/08 01:02:46;;;;;;;1999.90;999.90;;;12.40;99.90;;;;;;5125291;27;20092;-64
2022/10/08 01:05:15;;;;;;;1999.90;999.90;;;12.40;99.90;;;;;;5110930;27;20028;-64
2022/10/08 01:08:00;;;;;;;1999.90;999.90;;;12.40;99.90;;;;;;5076505;28;20374;-64
2022/10/08 01:10:47;;;;;;;1999.90;999.90;;;12.30;99.90;;;;;;5098667;28;20561;-64
2022/10/08 01:13:41;;;;;;;1999.90;999.90;;;12.30;99.90;;;;;;5109255;27;20121;-64
2022/10/08 01:16:36;;;;;;;1999.90;999.90;;;12.30;99.90;;;;;;5101579;28;20044;-64
2022/10/08 01:19:31;;;;;;;1999.90;999.90;;;12.30;99.90;;;;;;5043958;28;20053;-64
2022/10/08 01:22:28;;;;;;;1999.90;999.90;;;12.30;99.90;;;;;;5113085;27;20039;-64
2022/10/08 01:27:59;;;;;;;1999.90;999.90;;;12.30;99.90;;;;;;5110759;28;20044;-64
2022/10/08 01:30:25;;;;;;;1999.90;999.90;;;12.30;99.90;;;;;;5094275;28;20169;-64
2022/10/08 01:32:57;;;;;;;1999.90;999.90;;;12.20;99.90;;;;;;5114878;27;20528;-64
2022/10/08 01:35:32;;;;;;;1999.90;999.90;;;12.20;99.90;;;;;;5110484;28;20071;-64
2022/10/08 01:38:05;;;;;;;1999.90;999.90;;;12.20;99.90;;;;;;5097433;28;20047;-64
2022/10/08 01:40:36;;;;;;;1999.90;999.90;;;12.10;99.90;;;;;;5106248;27;20043;-64
2022/10/08 01:43:06;;;;;;;1999.90;999.90;;;12.10;99.90;;;;;;5078732;28;20120;-64
2022/10/08 01:45:37;;;;;;;1999.90;999.90;;;12.00;99.90;;;;;;5109277;28;20539;-64
2022/10/08 01:48:08;;;;;;;1999.90;999.90;;;12.00;99.90;;;;;;5107835;28;20047;-64
2022/10/08 01:50:39;;;;;;;1999.90;999.90;;;12.00;99.90;;;;;;5110218;28;20408;-64
2022/10/08 01:53:13;;;;;;;1999.90;999.90;;;11.90;99.90;;;;;;5081655;28;20058;-64
2022/10/08 01:55:42;;;;;;;1999.90;999.90;;;11.80;99.90;;;;;;5108292;28;20039;-64
2022/10/08 01:58:20;;;;;;;1999.90;999.90;;;11.80;99.90;;;;;;5072885;28;20040;-64
2022/10/08 02:00:49;;;;;;;1999.90;999.90;;;11.70;99.90;;;;;;5092142;28;20594;-64
2022/10/08 02:03:15;;;;;;;1999.90;999.90;;;11.60;99.90;;;;;;5109140;28;20065;-64
2022/10/08 02:05:47;;;;;;;1999.90;999.90;;;11.60;99.90;;;;;;5117075;27;20039;-64
2022/10/08 02:08:13;;;;;;;1999.90;999.90;;;11.50;99.90;;;;;;5098229;27;20039;-64
2022/10/08 02:10:39;;;;;;;1999.90;999.90;;;11.50;99.90;;;;;;5110151;28;20413;-64
2022/10/08 02:13:05;;;;;;;1999.90;999.90;;;11.40;99.90;;;;;;5090487;28;20051;-64
2022/10/08 02:15:45;;;;;;;1999.90;999.90;;;11.40;99.90;;;;;;5093003;28;20190;-64
2022/10/08 02:18:21;;;;;;;1999.90;999.90;;;11.40;99.90;;;;;;5109257;28;20035;-64
2022/10/08 02:20:58;;;;;;;1999.90;999.90;;;11.40;99.90;;;;;;5109774;28;20108;-64
2022/10/08 02:23:37;;;;;;;1999.90;999.90;;;11.40;99.90;;;;;;5075862;28;20048;-64
2022/10/08 02:26:15;;;;;;;1999.90;999.90;;;11.30;99.90;;;;;;5101977;27;20084;-64
2022/10/08 02:29:07;;;;;;;1999.90;999.90;;;11.30;99.90;;;;;;5089772;28;20036;-64
2022/10/08 02:31:43;;;;;;;1999.90;999.90;;;11.30;99.90;;;;;;5086185;28;20059;-64
2022/10/08 02:34:23;;;;;;;1999.90;999.90;;;11.20;99.90;;;;;;5108322;27;20043;-64
2022/10/08 02:37:00;;;;;;;1999.90;999.90;;;11.20;99.90;;;;;;5116564;27;20047;-64
2022/10/08 02:39:29;;;;;;;1999.90;999.90;;;11.20;99.90;;;;;;5086922;28;20047;-64
2022/10/08 02:41:59;;;;;;;1999.90;999.90;;;11.20;99.90;;;;;;5104797;28;20062;-64
2022/10/08 02:44:40;;;;;;;1999.90;999.90;;;11.20;99.90;;;;;;5115994;27;20055;-64
2022/10/08 02:47:10;;;;;;;1999.90;999.90;;;11.20;99.90;;;;;;5108852;28;20039;-64
2022/10/08 02:49:43;;;;;;;1999.90;999.90;;;11.20;99.90;;;;;;5118572;27;20396;-64
2022/10/08 02:52:10;;;;;;;1999.90;999.90;;;11.10;99.90;;;;;;5114998;27;20575;-64
2022/10/08 02:54:39;;;;;;;1999.90;999.90;;;11.20;99.90;;;;;;5115853;27;20066;-64
2022/10/08 02:57:15;;;;;;;1999.90;999.90;;;11.10;99.90;;;;;;5073956;28;20115;-64
2022/10/08 02:59:42;;;;;;;1999.90;999.90;;;11.10;99.90;;;;;;5086944;28;20520;-64
2022/10/08 03:02:10;;;;;;;1999.90;999.90;;;11.10;99.90;;;;;;5090168;28;20115;-64
2022/10/08 03:05:00;;;;;;;1999.90;999.90;;;11.10;99.90;;;;;;5089878;28;20042;-64
2022/10/08 03:07:29;;;;;;;1999.90;999.90;;;11.10;99.90;;;;;;5089783;28;20043;-64
2022/10/08 03:09:56;;;;;;;1999.90;999.90;;;11.20;99.90;;;;;;5095167;28;20051;-64
2022/10/08 03:12:24;;;;;;;1999.90;999.90;;;11.20;99.90;;;;;;5096904;28;20403;-64
2022/10/08 03:14:51;;;;;;;1999.90;999.90;;;11.20;99.90;;;;;;5092085;28;20125;-64
2022/10/08 03:17:23;;;;;;;1999.90;999.90;;;11.30;99.90;;;;;;5092844;28;20416;-64
2022/10/08 03:19:50;;;;;;;1999.90;999.90;;;11.30;99.90;;;;;;5110088;27;20039;-64
2022/10/08 03:22:16;;;;;;;1999.90;999.90;;;11.30;99.90;;;;;;5096250;28;20469;-64
2022/10/08 03:24:41;;;;;;;1999.90;999.90;;;11.40;99.90;;;;;;5092689;28;20122;-64
2022/10/08 03:27:07;;;;;;;1999.90;999.90;;;11.40;99.90;;;;;;5110398;27;20043;-64
2022/10/08 03:29:32;;;;;;;1999.90;999.90;;;11.40;99.90;;;;;;5107492;28;20039;-64
2022/10/08 03:31:58;;;;;;;1999.90;999.90;;;11.50;99.90;;;;;;5108538;28;20040;-65
2022/10/08 03:34:24;;;;;;;1999.90;999.90;;;11.50;99.90;;;;;;5098935;28;20043;-64
2022/10/08 03:36:50;;;;;;;1999.90;999.90;;;11.50;99.90;;;;;;5107904;28;20446;-64
2022/10/08 03:39:16;;;;;;;1999.90;999.90;;;11.50;99.90;;;;;;5073021;28;20040;-64
2022/10/08 03:41:41;;;;;;;1999.90;999.90;;;11.50;99.90;;;;;;5089840;28;20043;-64
2022/10/08 03:44:08;;;;;;;1999.90;999.90;;;11.50;99.90;;;;;;5090069;28;20647;-64
2022/10/08 03:46:34;;;;;;;1999.90;999.90;;;11.50;99.90;;;;;;5107750;28;20160;-64
2022/10/08 03:48:59;;;;;;;1999.90;999.90;;;11.50;99.90;;;;;;5095441;27;20499;-64
2022/10/08 03:51:25;;;;;;;1999.90;999.90;;;11.50;99.90;;;;;;5098069;28;20036;-64
2022/10/08 03:53:50;;;;;;;1999.90;999.90;;;11.40;99.90;;;;;;5089422;28;20488;-64
2022/10/08 03:56:20;;;;;;;1999.90;999.90;;;11.50;99.90;;;;;;5108474;28;20039;-64
2022/10/08 03:58:50;;;;;;;1999.90;999.90;;;11.40;99.90;;;;;;5107755;28;20054;-64
2022/10/08 04:01:16;;;;;;;1999.90;999.90;;;11.40;99.90;;;;;;5119340;27;20042;-64
2022/10/08 04:03:44;;;;;;;1999.90;999.90;;;11.40;99.90;;;;;;5077480;28;20499;-64
2022/10/08 04:06:10;;;;;;;1999.90;999.90;;;11.30;99.90;;;;;;5108284;28;20035;-64
2022/10/08 04:08:36;;;;;;;1999.90;999.90;;;11.20;99.90;;;;;;5108326;28;20476;-64
2022/10/08 04:11:06;;;;;;;1999.90;999.90;;;11.20;99.90;;;;;;5107135;28;20083;-64
2022/10/08 04:13:33;;;;;;;1999.90;999.90;;;11.10;99.90;;;;;;5089310;28;20039;-64
2022/10/08 04:16:03;;;;;;;1999.90;999.90;;;11.00;99.90;;;;;;5110808;28;20046;-65
2022/10/08 04:18:29;;;;;;;1999.90;999.90;;;11.00;99.90;;;;;;5098366;28;20512;-64
2022/10/08 04:20:59;;;;;;;1999.90;999.90;;;10.90;99.90;;;;;;5108459;28;20111;-65
2022/10/08 04:23:25;;;;;;;1999.90;999.90;;;10.90;99.90;;;;;;5102002;28;20062;-64
2022/10/08 04:25:51;;;;;;;1999.90;999.90;;;10.80;99.90;;;;;;5102825;28;20035;-64
2022/10/08 04:28:18;;;;;;;1999.90;999.90;;;10.80;99.90;;;;;;5113353;28;20088;-64
2022/10/08 04:30:56;;;;;;;1999.90;999.90;;;10.80;99.90;;;;;;5116270;28;20032;-64
2022/10/08 04:33:21;;;;;;;1999.90;999.90;;;10.70;99.90;;;;;;5089724;28;20392;-64
2022/10/08 04:35:48;;;;;;;1999.90;999.90;;;10.70;99.90;;;;;;5090102;28;20044;-64
2022/10/08 04:38:14;;;;;;;1999.90;999.90;;;10.60;99.90;;;;;;5110910;27;20043;-64
2022/10/08 04:40:39;;;;;;;1999.90;999.90;;;10.60;99.90;;;;;;5093208;28;20041;-64
2022/10/08 04:43:05;;;;;;;1999.90;999.90;;;10.50;99.90;;;;;;5111117;28;20096;-64
2022/10/08 04:45:30;;;;;;;1999.90;999.90;;;10.50;99.90;;;;;;5111487;28;20083;-64
2022/10/08 04:47:56;;;;;;;1999.90;999.90;;;10.40;99.90;;;;;;5111302;28;20043;-64
2022/10/08 04:50:21;;;;;;;1999.90;999.90;;;10.40;99.90;;;;;;5111115;28;20044;-64
2022/10/08 04:52:47;;;;;;;1999.90;999.90;;;10.30;99.90;;;;;;5111905;28;20049;-64
2022/10/08 04:55:13;;;;;;;1999.90;999.90;;;10.30;99.90;;;;;;5111391;28;20047;-64
2022/10/08 04:57:38;;;;;;;1999.90;999.90;;;10.30;99.90;;;;;;5094328;28;20031;-64
2022/10/08 05:00:05;;;;;;;1999.90;999.90;;;10.30;99.90;;;;;;5102794;28;20043;-64
2022/10/08 05:02:31;;;;;;;1999.90;999.90;;;10.20;99.90;;;;;;5110756;28;20430;-64
2022/10/08 05:04:57;;;;;;;1999.90;999.90;;;10.20;99.90;;;;;;5111783;28;20043;-64
2022/10/08 05:07:23;;;;;;;1999.90;999.90;;;10.20;99.90;;;;;;5086910;28;20039;-64
2022/10/08 05:09:49;;;;;;;1999.90;999.90;;;10.20;99.90;;;;;;5104051;28;20489;-64
2022/10/08 05:12:15;;;;;;;1999.90;999.90;;;10.20;99.90;;;;;;5110375;28;20423;-64
2022/10/08 05:14:40;;;;;;;1999.90;999.90;;;10.20;99.90;;;;;;5109785;28;20042;-64
2022/10/08 05:17:06;;;;;;;1999.90;999.90;;;10.10;99.90;;;;;;5113074;27;20043;-64
2022/10/08 05:19:32;;;;;;;1999.90;999.90;;;10.10;99.90;;;;;;5104444;28;20143;-64
2022/10/08 05:21:57;;;;;;;1999.90;999.90;;;10.10;99.90;;;;;;5112695;27;20446;-64
2022/10/08 05:24:23;;;;;;;1999.90;999.90;;;10.10;99.90;;;;;;5112228;27;20035;-65
2022/10/08 05:26:51;;;;;;;1999.90;999.90;;;10.10;99.90;;;;;;5097875;28;20055;-64
2022/10/08 05:29:17;;;;;;;1999.90;999.90;;;10.00;99.90;;;;;;5111017;27;20381;-64
2022/10/08 05:31:43;;;;;;;1999.90;999.90;;;10.10;99.90;;;;;;5095958;28;20031;-64
2022/10/08 05:34:11;;;;;;;1999.90;999.90;;;10.10;99.90;;;;;;5111176;28;20039;-65
2022/10/08 05:36:36;;;;;;;1999.90;999.90;;;10.10;99.90;;;;;;5092949;28;20418;-64
2022/10/08 05:39:04;;;;;;;1999.90;999.90;;;10.00;99.90;;;;;;5110426;28;20039;-64
2022/10/08 05:41:32;;;;;;;1999.90;999.90;;;10.00;99.90;;;;;;5089698;28;20541;-65
2022/10/08 05:44:00;;;;;;;1999.90;999.90;;;10.00;99.90;;;;;;5109147;28;20056;-64
2022/10/08 05:46:27;;;;;;;1999.90;999.90;;;10.00;99.90;;;;;;5110666;27;20044;-64
2022/10/08 05:48:58;;;;;;;1999.90;999.90;;;10.00;99.90;;;;;;5105338;28;20453;-64
2022/10/08 05:51:24;;;;;;;1999.90;999.90;;;10.00;99.90;;;;;;5110089;28;20036;-64
2022/10/08 05:53:52;;;;;;;1999.90;999.90;;;10.00;99.90;;;;;;5111628;27;20044;-64
2022/10/08 05:56:20;;;;;;;1999.90;999.90;;;10.00;99.90;;;;;;5098663;28;20500;-64
2022/10/08 05:58:46;;;;;;;1999.90;999.90;;;9.90;99.90;;;;;;5111929;27;20047;-64
2022/10/08 06:01:15;;;;;;;1999.90;999.90;;;9.90;99.90;;;;;;5103156;28;20515;-65
2022/10/08 06:03:41;;;;;;;1999.90;999.90;;;9.90;99.90;;;;;;5110319;28;20126;-65
2022/10/08 06:06:10;;;;;;;1999.90;999.90;;;9.90;99.90;;;;;;5109719;28;20071;-65
2022/10/08 06:08:36;;;;;;;1999.90;999.90;;;9.90;99.90;;;;;;5103549;28;20047;-65
2022/10/08 06:11:04;;;;;;;1999.90;999.90;;;9.90;99.90;;;;;;5106198;28;20135;-64
2022/10/08 06:13:30;;;;;;;1999.90;999.90;;;9.90;99.90;;;;;;5109718;28;20100;-64
2022/10/08 06:16:07;;;;;;;1999.90;999.90;;;10.00;99.90;;;;;;5109490;28;20044;-65
2022/10/08 06:18:36;;;;;;;1999.90;999.90;;;10.00;99.90;;;;;;5099365;28;20048;-65
2022/10/08 06:21:04;;;;;;;1999.90;999.90;;;10.00;99.90;;;;;;5066644;28;20039;-65
2022/10/08 06:23:30;;;;;;;1999.90;999.90;;;10.10;99.90;;;;;;5091226;28;20119;-64
2022/10/08 06:25:59;;;;;;;1999.90;999.90;;;10.20;99.90;;;;;;5077511;28;20138;-65
2022/10/08 06:28:25;;;;;;;1999.90;999.90;;;10.30;99.90;;;;;;5110162;28;20066;-65
2022/10/08 06:30:50;;;;;;;1999.90;999.90;;;10.30;99.90;;;;;;5109343;28;20063;-65
2022/10/08 06:33:16;;;;;;;1999.90;999.90;;;10.40;99.90;;;;;;5104809;28;20105;-65
2022/10/08 06:35:41;;;;;;;1999.90;999.90;;;10.50;99.90;;;;;;5079837;28;20039;-65
2022/10/08 06:38:07;;;;;;;1999.90;999.90;;;10.50;99.90;;;;;;5085972;28;20591;-65
2022/10/08 06:40:39;;;;;;;1999.90;999.90;;;10.50;99.90;;;;;;5109736;28;20481;-65
2022/10/08 06:43:13;;;;;;;1999.90;999.90;;;10.60;99.90;;;;;;5096082;28;20048;-65
2022/10/08 06:45:39;;;;;;;1999.90;999.90;;;10.80;99.90;;;;;;5080627;28;20505;-65
2022/10/08 06:48:05;;;;;;;1999.90;999.90;;;10.80;99.90;;;;;;5109648;28;20035;-65
2022/10/08 06:50:32;;;;;;;1999.90;999.90;;;10.90;99.90;;;;;;5091679;28;20484;-64
2022/10/08 06:52:57;;;;;;;1999.90;999.90;;;11.00;99.90;;;;;;5099867;27;20055;-65
2022/10/08 06:55:23;;;;;;;1999.90;999.90;;;11.00;99.90;;;;;;5094761;27;20066;-65
2022/10/08 06:57:49;;;;;;;1999.90;999.90;;;11.10;99.90;;;;;;5109914;27;20122;-65
2022/10/08 07:00:14;;;;;;;1999.90;999.90;;;11.10;99.90;;;;;;5090333;28;20047;-65
2022/10/08 07:02:40;;;;;;;1999.90;999.90;;;11.10;99.90;;;;;;5103451;28;20035;-66
2022/10/08 07:05:06;;;;;;;1999.90;999.90;;;11.10;99.90;;;;;;5073256;28;20075;-65
2022/10/08 07:07:31;;;;;;;1999.90;999.90;;;11.10;99.90;;;;;;5108902;28;20032;-65
2022/10/08 07:09:57;;;;;;;1999.90;999.90;;;11.20;99.90;;;;;;5108998;28;20046;-65
2022/10/08 07:12:23;;;;;;;1999.90;999.90;;;11.30;99.90;;;;;;5108318;27;20055;-65
2022/10/08 07:14:48;;;;;;;1999.90;999.90;;;11.30;99.90;;;;;;5077196;28;20084;-65
2022/10/08 07:17:14;;;;;;;1999.90;999.90;;;11.40;99.90;;;;;;5088155;28;20120;-65
2022/10/08 07:19:39;;;;;;;1999.90;999.90;;;11.30;99.90;;;;;;5108076;28;20035;-65
2022/10/08 07:22:05;;;;;;;1999.90;999.90;;;11.30;99.90;;;;;;5090119;28;20039;-65
2022/10/08 07:24:30;;;;;;;1999.90;999.90;;;11.30;99.90;;;;;;5088618;28;20130;-65
2022/10/08 07:26:56;;;;;;;1999.90;999.90;;;11.40;99.90;;;;;;5108649;28;20035;-65
2022/10/08 07:29:23;;;;;;;1999.90;999.90;;;11.50;99.90;;;;;;5071780;28;20668;-65
2022/10/08 07:31:49;;;;;;;1999.90;999.90;;;11.60;99.90;;;;;;5090356;28;20062;-65
2022/10/08 07:34:15;;;;;;;1999.90;999.90;;;11.60;99.90;;;;;;5072894;28;20039;-65
2022/10/08 07:36:41;;;;;;;1999.90;999.90;;;11.60;99.90;;;;;;5110179;27;20039;-65
2022/10/08 07:39:10;;;;;;;1999.90;999.90;;;11.60;99.90;;;;;;5101488;28;20085;-65
2022/10/08 07:41:36;;;;;;;1999.90;999.90;;;11.60;99.90;;;;;;5105277;27;20043;-65
2022/10/08 07:44:03;;;;;;;1999.90;999.90;;;11.60;99.90;;;;;;5078496;28;20051;-65
2022/10/08 07:46:31;;;;;;;1999.90;999.90;;;11.60;99.90;;;;;;5100283;28;20082;-65
2022/10/08 07:49:03;;;;;;;1999.90;999.90;;;11.60;99.90;;;;;;5102353;28;20040;-65
2022/10/08 07:51:30;;;;;;;1999.90;999.90;;;11.60;99.90;;;;;;5098241;27;20047;-65
2022/10/08 07:53:57;;;;;;;1999.90;999.90;;;11.70;99.90;;;;;;5108975;27;20039;-65
2022/10/08 07:56:24;;;;;;;1999.90;999.90;;;11.70;99.90;;;;;;5089513;28;20173;-65
2022/10/08 07:58:50;;;;;;;1999.90;999.90;;;11.80;99.90;;;;;;5110586;27;20031;-65
2022/10/08 08:01:21;;;;;;;1999.90;999.90;;;11.90;99.90;;;;;;5129061;27;20069;-65
2022/10/08 08:04:01;;;;;;;1999.90;999.90;;;12.00;99.90;;;;;;5092863;28;20101;-65
2022/10/08 08:06:27;;;;;;;1999.90;999.90;;;12.10;99.90;;;;;;5106012;28;20036;-65
2022/10/08 08:08:52;;;;;;;1999.90;999.90;;;12.30;99.90;;;;;;5102015;28;20145;-65
2022/10/08 08:11:20;;;;;;;1999.90;999.90;;;12.40;99.90;;;;;;5107610;28;20032;-65
2022/10/08 08:13:46;;;;;;;1999.90;999.90;;;12.50;99.90;;;;;;5107567;28;20480;-65
2022/10/08 08:16:14;;;;;;;1999.90;999.90;;;12.60;99.90;;;;;;5091945;28;20047;-66
2022/10/08 08:18:42;;;;;;;1999.90;999.90;;;12.80;99.90;;;;;;5091437;28;20109;-65
2022/10/08 08:21:35;;;;;;;1999.90;999.90;;;13.20;99.90;;;;;;5096095;28;21054;-65
2022/10/08 08:24:10;;;;;;;1999.90;999.90;;;13.70;99.90;;;;;;5104622;28;20058;-66
2022/10/08 08:26:38;;;;;;;1999.90;999.90;;;14.00;99.90;;;;;;5111259;28;20126;-65
2022/10/08 08:29:13;;;;;;;1999.90;999.90;;;14.50;99.90;;;;;;5101355;28;20039;-65
2022/10/08 08:31:42;;;;;;;1999.90;999.90;;;15.30;99.90;;;;;;5080445;28;20043;-65
2022/10/08 08:34:10;;;;;;;1999.90;999.90;;;15.90;99.90;;;;;;5100186;28;20051;-65
2022/10/08 08:36:44;;;;;;;1999.90;999.90;;;16.50;99.90;;;;;;5089628;28;20032;-65
2022/10/08 08:39:16;;;;;;;1999.90;999.90;;;16.90;99.90;;;;;;5099804;28;20117;-64
2022/10/08 08:42:20;;;;;;;1999.90;999.90;;;17.20;99.90;;;;;;5120472;28;20034;-65
2022/10/08 08:44:58;;;;;;;1999.90;999.90;;;17.60;99.90;;;;;;5087412;28;20059;-65
2022/10/08 08:47:35;;;;;;;1999.90;999.90;;;17.70;99.90;;;;;;5069872;28;20378;-65
2022/10/08 08:50:31;;;;;;;1999.90;999.90;;;17.50;99.90;;;;;;5105611;28;20035;-67
2022/10/08 08:52:57;;;;;;;1999.90;999.90;;;17.70;99.90;;;;;;5096005;28;20039;-65
2022/10/08 08:55:34;;;;;;;1999.90;999.90;;;18.00;99.90;;;;;;5088876;28;20054;-65
2022/10/08 08:58:08;;;;;;;1999.90;999.90;;;18.30;99.90;;;;;;5089386;28;20043;-65
2022/10/08 09:00:38;;;;;;;1999.90;999.90;;;18.50;99.90;;;;;;5101406;28;20131;-65
2022/10/08 09:03:12;;;;;;;1999.90;999.90;;;18.60;99.90;;;;;;5104849;28;20516;-65
2022/10/08 09:05:41;;;;;;;1999.90;999.90;;;18.70;99.90;;;;;;5107506;28;20363;-65
2022/10/08 09:08:42;;;;;;;1999.90;999.90;;;18.60;99.90;;;;;;5117298;28;20039;-64
2022/10/08 09:11:28;;;;;;;1999.90;999.90;;;18.40;99.90;;;;;;5071874;28;20387;-65
2022/10/08 09:14:10;;;;;;;1999.90;999.90;;;18.00;99.90;;;;;;5083531;28;20504;-65
2022/10/08 09:16:37;;;;;;;1999.90;999.90;;;18.00;99.90;;;;;;5105063;28;20042;-65
2022/10/08 09:19:03;;;;;;;1999.90;999.90;;;18.20;99.90;;;;;;5109990;27;20043;-65
2022/10/08 09:21:31;;;;;;;1999.90;999.90;;;18.40;99.90;;;;;;5124615;27;20105;-65
2022/10/08 09:23:57;;;;;;;1999.90;999.90;;;18.60;99.90;;;;;;5092860;28;20367;-66
2022/10/08 09:26:33;;;;;;;1999.90;999.90;;;18.60;99.90;;;;;;5091620;28;20097;-65
2022/10/08 09:29:01;;;;;;;1999.90;999.90;;;18.30;99.90;;;;;;5109353;28;20043;-65
2022/10/08 09:31:30;;;;;;;1999.90;999.90;;;17.80;99.90;;;;;;5110248;28;20068;-65
2022/10/08 09:34:17;;;;;;;1999.90;999.90;;;17.30;99.90;;;;;;5092377;28;20051;-65
2022/10/08 09:37:01;;;;;;;1999.90;999.90;;;17.00;99.90;;;;;;5114578;27;20502;-65
2022/10/08 09:39:29;;;;;;;1999.90;999.90;;;17.20;99.90;;;;;;5110107;28;20400;-64
2022/10/08 09:42:07;;;;;;;1999.90;999.90;;;17.70;99.90;;;;;;5119141;27;20141;-65
2022/10/08 09:44:46;;;;;;;1999.90;999.90;;;18.00;99.90;;;;;;5095336;28;20141;-65
2022/10/08 09:47:14;;;;;;;1999.90;999.90;;;18.10;99.90;;;;;;5095057;28;20431;-65
2022/10/08 09:49:40;;;;;;;1999.90;999.90;;;18.00;99.90;;;;;;5117616;27;20027;-65
2022/10/08 09:52:25;;;;;;;1999.90;999.90;;;17.90;99.90;;;;;;5102788;28;20530;-64
2022/10/08 09:55:09;;;;;;;1999.90;999.90;;;17.40;99.90;;;;;;5121318;27;20400;-64
2022/10/08 09:57:53;;;;;;;1999.90;999.90;;;16.60;99.90;;;;;;5110808;27;20038;-64
2022/10/08 10:00:31;;;;;;;1999.90;999.90;;;16.00;99.90;;;;;;5078495;27;20044;-64
2022/10/08 10:02:59;;;;;;;1999.90;999.90;;;15.50;99.90;;;;;;5117199;27;20036;-64
2022/10/08 10:05:31;;;;;;;1999.90;999.90;;;15.10;99.90;;;;;;5109538;28;20523;-64
2022/10/08 10:07:56;;;;;;;1999.90;999.90;;;14.90;99.90;;;;;;5110010;28;20573;-64
2022/10/08 10:10:33;;;;;;;1999.90;999.90;;;14.90;99.90;;;;;;5109848;28;20039;-64
2022/10/08 10:13:05;;;;;;;1999.90;999.90;;;15.30;99.90;;;;;;5109541;28;20086;-65
2022/10/08 10:15:38;;;;;;;1999.90;999.90;;;15.50;99.90;;;;;;5104613;27;20039;-64
2022/10/08 10:18:10;;;;;;;;;;;15.40;99.90;;;;;;5110455;28;20043;-64
2022/10/08 10:20:43;;;;;;;1999.90;999.90;;;15.20;99.90;;;;;;5109991;27;19967;-64
2022/10/08 10:23:17;;;;;;;1999.90;999.90;;;15.30;99.90;;;;;;5086145;28;20385;-65
2022/10/08 10:25:54;;;;;;;1999.90;999.90;;;15.70;99.90;;;;;;5104148;27;20049;-64
2022/10/08 10:28:52;;;;;;;1999.90;999.90;;;15.80;99.90;;;;;;5078800;28;20071;-65
2022/10/08 10:31:30;;;;;;;1999.90;999.90;;;16.00;99.90;;;;;;5108913;27;20505;-65
2022/10/08 10:34:27;;;;;;;1999.90;999.90;;;16.30;99.90;;;;;;5092297;28;20047;-65
2022/10/08 10:36:53;;;;;;;1999.90;999.90;;;16.50;99.90;;;;;;5111009;27;20046;-65
2022/10/08 10:39:45;;;;;;;1999.90;999.90;;;16.60;99.90;;;;;;5118972;27;20039;-65
2022/10/08 10:42:25;;;;;;;1999.90;999.90;;;16.70;99.90;;;;;;5077120;28;20055;-65
2022/10/08 10:44:56;;;;;;;1999.90;999.90;;;16.90;99.90;;;;;;5112467;27;20066;-65
2022/10/08 10:47:26;;;;;;;1999.90;999.90;;;17.10;99.90;;;;;;5103334;27;20043;-65
2022/10/08 10:49:52;;;;;;;1999.90;999.90;;;17.30;99.90;;;;;;5092041;28;20389;-65
2022/10/08 10:52:34;;;;;;;1999.90;999.90;;;17.50;99.90;;;;;;5123346;27;20035;-65
2022/10/08 10:55:30;;;;;;;1999.90;999.90;;;17.50;99.90;;;;;;5105021;27;20552;-65
2022/10/08 10:58:24;;;;;;;1999.90;999.90;;;17.60;99.90;;;;;;5079447;28;20056;-64
2022/10/08 11:00:55;;;;;;;;;;;17.50;99.90;;;;;;5129417;27;20058;-64
2022/10/08 11:04:02;;;;;;;1999.90;999.90;;;17.60;99.90;;;;;;5116376;27;20018;-64
2022/10/08 11:06:55;;;;;;;1999.90;999.90;;;17.60;99.90;;;;;;5053904;28;20435;-65
2022/10/08 11:09:41;;;;;;;1999.90;999.90;;;17.60;99.90;;;;;;5108570;27;20032;-65
2022/10/08 11:12:49;;;;;;;1999.90;999.90;;;17.50;99.90;;;;;;5100652;28;20043;-65
2022/10/08 11:15:40;;;;;;;1999.90;999.90;;;17.20;99.90;;;;;;5001101;28;20049;-65
2022/10/08 11:18:21;;;;;;;1999.90;999.90;;;17.00;99.90;;;;;;5093770;28;20113;-65
2022/10/08 11:21:18;;;;;;;1999.90;999.90;;;16.80;99.90;;;;;;5093888;28;20090;-64
2022/10/08 11:24:09;;;;;;;1999.90;999.90;;;16.80;99.90;;;;;;5108363;28;20043;-65
2022/10/08 11:27:17;;;;;;;1999.90;999.90;;;16.80;99.90;;;;;;5073203;28;20508;-65
2022/10/08 11:30:06;;;;;;;1999.90;999.90;;;17.00;99.90;;;;;;5105182;27;20474;-64
2022/10/08 11:32:32;;;;;;;1999.90;999.90;;;16.90;99.90;;;;;;5093447;28;20138;-64
2022/10/08 11:35:24;;;;;;;1999.90;999.90;;;16.80;99.90;;;;;;5108184;28;20069;-65
2022/10/08 11:38:10;;;;;;;1999.90;999.90;;;16.90;99.90;;;;;;5107175;28;20049;-64
2022/10/08 11:40:46;;;;;;;1999.90;999.90;;;17.30;99.90;;;;;;5095148;28;20043;-64
2022/10/08 11:43:15;;;;;;;1999.90;999.90;;;17.70;99.90;;;;;;5107225;27;20043;-64
2022/10/08 11:45:44;;;;;;;1999.90;999.90;;;18.00;99.90;;;;;;5102704;28;20047;-65
2022/10/08 11:48:24;;;;;;;1999.90;999.90;;;18.10;99.90;;;;;;5094878;27;20111;-65
2022/10/08 11:50:50;;;;;;;1999.90;999.90;;;18.20;99.90;;;;;;5096454;28;20047;-65
2022/10/08 11:53:19;;;;;;;1999.90;999.90;;;18.20;99.90;;;;;;5103472;27;20062;-64
2022/10/08 11:55:52;;;;;;;1999.90;999.90;;;18.10;99.90;;;;;;5108217;28;20039;-64
2022/10/08 11:58:26;;;;;;;;;;;18.10;99.90;;;;;;5090404;28;20047;-64
2022/10/08 12:00:59;;;;;;;1999.90;999.90;;;17.80;99.90;;;;;;5096376;28;20014;-64
2022/10/08 12:03:26;;;;;;;;;;;17.60;99.90;;;;;;5107981;28;20176;-64
2022/10/08 12:06:13;;;;;;;1999.90;999.90;;;17.20;99.90;;;;;;5107927;28;19923;-65
2022/10/08 12:08:53;;;;;;;1999.90;999.90;;;16.80;99.90;;;;;;5121667;28;20027;-64
2022/10/08 12:11:28;;;;;;;1999.90;999.90;;;16.60;99.90;;;;;;5095745;28;20043;-64
2022/10/08 12:14:15;;;;;;;1999.90;999.90;;;16.40;99.90;;;;;;5089183;28;20043;-64
2022/10/08 12:16:47;;;;;;;1999.90;999.90;;;16.50;99.90;;;;;;5097784;28;20051;-64
2022/10/08 12:22:00;;;;;;;1999.90;999.90;;;16.50;99.90;;;;;;5078916;28;20047;-64
2022/10/08 12:24:38;;;;;;;1999.90;999.90;;;16.50;99.90;;;;;;5122219;28;20072;-64
2022/10/08 12:27:15;;;;;;;1999.90;999.90;;;16.40;99.90;;;;;;5083444;28;20070;-64
2022/10/08 12:30:06;;;;;;;1999.90;999.90;;;16.60;99.90;;;;;;5111635;28;20041;-64
2022/10/08 12:32:51;;;;;;;1999.90;999.90;;;16.70;99.90;;;;;;5089238;28;20047;-64